Time;durP1;ratioP1;P1;durP2;ratioP2;P2;SDS_P1;SDS_P2;PMS_P1;PMS_P2;Temp;Humidity;BMP_temperature;BMP_pressure;BME280_temperature;BME280_humidity;BME280_pressure;Samples;Min_cycle;Max_cycle;Signal;HPM_P1;HPM_P2
2023/05/10 00:01:12;;;;;;;24.70;4.32;;;;;;;;;;5032632;28;20040;-51
2023/05/10 00:03:40;;;;;;;26.85;4.40;;;;;;;;;;5032600;28;20079;-55
2023/05/10 00:06:07;;;;;;;25.15;4.20;;;;;;;;;;5032077;28;20057;-51
2023/05/10 00:08:34;;;;;;;19.92;4.22;;;;;;;;;;5032159;28;20025;-52
2023/05/10 00:11:01;;;;;;;21.55;4.70;;;;;;;;;;5032473;28;20037;-49
2023/05/10 00:13:28;;;;;;;28.90;4.68;;;;;;;;;;5031924;28;20033;-50
2023/05/10 00:15:55;;;;;;;30.60;5.45;;;;;;;;;;5031185;28;20033;-50
2023/05/10 00:18:22;;;;;;;19.67;5.22;;;;;;;;;;5032137;28;20034;-52
2023/05/10 00:20:49;;;;;;;19.83;4.80;;;;;;;;;;5032064;28;20099;-53
2023/05/10 00:23:16;;;;;;;25.65;5.93;;;;;;;;;;5027280;28;20071;-48
2023/05/10 00:25:43;;;;;;;27.95;5.60;;;;;;;;;;5030900;28;20030;-50
2023/05/10 00:28:10;;;;;;;35.80;5.57;;;;;;;;;;5032058;28;20029;-52
2023/05/10 00:30:37;;;;;;;39.13;6.65;;;;;;;;;;5018891;28;20511;-52
2023/05/10 00:33:04;;;;;;;30.83;6.32;;;;;;;;;;5020152;28;20045;-50
2023/05/10 00:35:31;;;;;;;36.20;6.50;;;;;;;;;;5036053;28;20052;-49
2023/05/10 00:37:58;;;;;;;39.60;7.35;;;;;;;;;;5029152;28;20042;-48
2023/05/10 00:40:25;;;;;;;42.90;7.43;;;;;;;;;;5028873;28;20037;-50
2023/05/10 00:42:52;;;;;;;50.50;8.25;;;;;;;;;;5030798;28;20032;-50
2023/05/10 00:45:19;;;;;;;38.80;7.60;;;;;;;;;;5030444;28;20033;-50
2023/05/10 00:47:46;;;;;;;32.13;7.80;;;;;;;;;;5031049;28;20112;-51
2023/05/10 00:50:14;;;;;;;42.65;7.95;;;;;;;;;;5030451;28;20055;-52
2023/05/10 00:52:41;;;;;;;40.33;7.93;;;;;;;;;;5030826;28;20042;-49
2023/05/10 00:55:08;;;;;;;35.53;8.02;;;;;;;;;;5031033;28;21680;-51
2023/05/10 00:57:35;;;;;;;39.25;7.68;;;;;;;;;;5030565;28;20037;-50
2023/05/10 01:00:03;;;;;;;33.80;7.25;;;;;;;;;;5030896;28;20029;-50
2023/05/10 01:02:30;;;;;;;43.65;8.10;;;;;;;;;;5030943;28;20082;-50
2023/05/10 01:04:57;;;;;;;36.92;8.32;;;;;;;;;;5030736;28;20114;-51
2023/05/10 01:07:24;;;;;;;37.95;8.15;;;;;;;;;;5030785;28;20026;-53
2023/05/10 01:09:51;;;;;;;43.80;8.40;;;;;;;;;;5030938;28;20021;-52
2023/05/10 01:12:18;;;;;;;43.15;8.63;;;;;;;;;;5030443;28;20022;-51
2023/05/10 01:14:45;;;;;;;42.58;9.07;;;;;;;;;;5030854;28;20036;-50
2023/05/10 01:17:13;;;;;;;39.63;8.65;;;;;;;;;;5030650;28;20029;-49
2023/05/10 01:19:40;;;;;;;33.50;8.50;;;;;;;;;;5030779;28;20171;-50
2023/05/10 01:22:07;;;;;;;39.42;8.80;;;;;;;;;;5030558;28;20170;-50
2023/05/10 01:24:34;;;;;;;40.88;8.73;;;;;;;;;;5030630;28;20025;-50
2023/05/10 01:27:13;;;;;;;54.90;10.20;;;;;;;;;;5030700;28;20056;-51
2023/05/10 01:29:46;;;;;;;46.55;10.00;;;;;;;;;;5011648;28;20108;-50
2023/05/10 01:32:13;;;;;;;43.60;10.43;;;;;;;;;;5016094;28;20037;-50
2023/05/10 01:34:47;;;;;;;46.50;9.77;;;;;;;;;;5027100;28;20113;-48
2023/05/10 01:37:21;;;;;;;54.58;11.13;;;;;;;;;;5030506;28;20112;-50
2023/05/10 01:39:59;;;;;;;51.38;10.77;;;;;;;;;;5026326;28;20103;-53
2023/05/10 01:42:27;;;;;;;53.72;10.90;;;;;;;;;;5020758;28;20037;-49
2023/05/10 01:44:57;;;;;;;45.42;9.50;;;;;;;;;;5030292;28;20033;-50
2023/05/10 01:47:30;;;;;;;38.25;9.55;;;;;;;;;;5032895;23;20054;-43
2023/05/10 01:50:00;;;;;;;43.75;10.02;;;;;;;;;;4996660;28;20149;-43
2023/05/10 01:52:31;;;;;;;53.13;11.20;;;;;;;;;;4990738;28;20026;-44
2023/05/10 01:55:02;;;;;;;53.35;10.38;;;;;;;;;;4991387;28;20392;-43
2023/05/10 01:57:33;;;;;;;60.55;10.60;;;;;;;;;;4994385;28;20018;-44
2023/05/10 02:00:02;;;;;;;65.82;10.77;;;;;;;;;;4994944;28;20547;-44
2023/05/10 02:02:30;;;;;;;58.45;9.80;;;;;;;;;;4979452;28;20027;-43
2023/05/10 02:04:58;;;;;;;67.85;11.15;;;;;;;;;;4974953;28;20027;-44
2023/05/10 02:07:25;;;;;;;52.85;9.88;;;;;;;;;;4978339;28;20523;-45
2023/05/10 02:09:52;;;;;;;42.78;9.50;;;;;;;;;;4988485;28;20140;-43
2023/05/10 02:12:20;;;;;;;49.30;8.77;;;;;;;;;;4992928;28;20026;-46
2023/05/10 02:14:47;;;;;;;35.92;7.95;;;;;;;;;;4993447;28;20085;-51
2023/05/10 02:17:15;;;;;;;46.38;9.05;;;;;;;;;;4988028;28;20105;-44
2023/05/10 02:19:43;;;;;;;47.28;9.75;;;;;;;;;;4993530;28;20041;-44
2023/05/10 02:22:10;;;;;;;34.53;9.10;;;;;;;;;;4993160;28;20030;-43
2023/05/10 02:24:38;;;;;;;35.22;9.20;;;;;;;;;;4993776;28;20125;-44
2023/05/10 02:27:05;;;;;;;44.83;9.20;;;;;;;;;;4994069;28;20022;-44
2023/05/10 02:29:33;;;;;;;43.17;9.35;;;;;;;;;;4993819;28;20468;-45
2023/05/10 02:32:00;;;;;;;40.25;8.60;;;;;;;;;;4993847;28;20050;-46
2023/05/10 02:34:28;;;;;;;43.00;8.40;;;;;;;;;;4993999;28;20049;-45
2023/05/10 02:36:56;;;;;;;33.00;8.25;;;;;;;;;;4993838;28;20038;-43
2023/05/10 02:39:24;;;;;;;38.83;8.98;;;;;;;;;;4991488;28;20014;-43
2023/05/10 02:41:53;;;;;;;34.42;8.20;;;;;;;;;;4993737;28;20018;-43
2023/05/10 02:44:20;;;;;;;35.78;7.78;;;;;;;;;;4993845;28;20133;-44
2023/05/10 02:46:47;;;;;;;38.13;9.63;;;;;;;;;;4993681;28;20042;-46
2023/05/10 02:49:15;;;;;;;35.75;7.80;;;;;;;;;;4993537;28;20097;-45
2023/05/10 02:51:45;;;;;;;29.17;7.85;;;;;;;;;;4992257;28;20080;-48
2023/05/10 02:54:13;;;;;;;28.65;8.00;;;;;;;;;;4993401;28;20065;-44
2023/05/10 02:56:43;;;;;;;33.55;7.97;;;;;;;;;;4993573;28;20026;-43
2023/05/10 02:59:10;;;;;;;25.35;7.75;;;;;;;;;;4993592;28;20049;-45
2023/05/10 03:01:37;;;;;;;23.33;7.10;;;;;;;;;;4994451;28;20089;-44
2023/05/10 03:04:05;;;;;;;24.50;7.38;;;;;;;;;;4994842;28;20029;-43
2023/05/10 03:06:32;;;;;;;27.95;6.78;;;;;;;;;;4993767;28;20435;-44
2023/05/10 03:09:00;;;;;;;23.75;7.28;;;;;;;;;;4994837;28;20015;-43
2023/05/10 03:11:30;;;;;;;32.33;7.30;;;;;;;;;;4994790;28;20523;-45
2023/05/10 03:14:11;;;;;;;25.08;6.70;;;;;;;;;;4994682;28;20396;-43
2023/05/10 03:16:50;;;;;;;23.83;6.13;;;;;;;;;;4994336;28;20023;-44
2023/05/10 03:19:37;;;;;;;30.08;6.90;;;;;;;;;;4994530;28;20073;-47
2023/05/10 03:22:07;;;;;;;27.25;6.35;;;;;;;;;;4994654;28;20038;-44
2023/05/10 03:24:36;;;;;;;27.15;6.95;;;;;;;;;;4994521;28;20030;-44
2023/05/10 03:27:04;;;;;;;22.65;6.07;;;;;;;;;;4994288;28;20233;-47
2023/05/10 03:29:32;;;;;;;27.48;6.63;;;;;;;;;;4994455;28;20032;-45
2023/05/10 03:32:00;;;;;;;25.17;6.85;;;;;;;;;;4994406;28;20383;-44
2023/05/10 03:34:27;;;;;;;21.23;6.60;;;;;;;;;;4994027;28;20034;-44
2023/05/10 03:36:54;;;;;;;21.63;6.47;;;;;;;;;;4994179;28;20436;-43
2023/05/10 03:39:21;;;;;;;21.27;6.63;;;;;;;;;;4994226;28;20092;-43
2023/05/10 03:41:48;;;;;;;21.65;6.47;;;;;;;;;;4994194;28;20027;-44
2023/05/10 03:44:15;;;;;;;21.75;6.30;;;;;;;;;;4994095;28;20092;-45
2023/05/10 03:46:42;;;;;;;23.33;6.70;;;;;;;;;;4993738;28;20057;-43
2023/05/10 03:49:09;;;;;;;24.23;7.38;;;;;;;;;;4994060;28;20107;-43
2023/05/10 03:51:36;;;;;;;19.95;6.25;;;;;;;;;;4993984;28;20038;-43
2023/05/10 03:54:03;;;;;;;24.58;6.47;;;;;;;;;;4993943;28;20065;-44
2023/05/10 03:56:30;;;;;;;20.10;6.22;;;;;;;;;;4993889;28;20026;-43
2023/05/10 03:58:57;;;;;;;21.30;6.50;;;;;;;;;;4993719;28;20141;-44
2023/05/10 04:01:24;;;;;;;23.70;6.50;;;;;;;;;;4993881;28;20022;-44
2023/05/10 04:03:51;;;;;;;17.23;5.65;;;;;;;;;;4993797;28;20518;-44
2023/05/10 04:06:18;;;;;;;18.98;5.75;;;;;;;;;;4993654;28;20030;-43
2023/05/10 04:08:45;;;;;;;19.10;6.00;;;;;;;;;;4993801;28;20029;-44
2023/05/10 04:11:13;;;;;;;20.33;6.28;;;;;;;;;;4993582;28;20037;-43
2023/05/10 04:13:41;;;;;;;18.40;5.95;;;;;;;;;;4993559;28;20034;-43
2023/05/10 04:16:08;;;;;;;18.08;5.97;;;;;;;;;;4993379;28;20427;-44
2023/05/10 04:18:35;;;;;;;15.27;5.55;;;;;;;;;;4993522;28;20034;-43
2023/05/10 04:21:02;;;;;;;12.95;5.35;;;;;;;;;;4993415;28;20030;-43
2023/05/10 04:23:29;;;;;;;16.58;5.22;;;;;;;;;;4993246;28;20460;-44
2023/05/10 04:26:03;;;;;;;17.33;5.50;;;;;;;;;;4993344;28;20077;-43
2023/05/10 04:28:30;;;;;;;18.08;5.57;;;;;;;;;;4993352;28;20438;-44
2023/05/10 04:31:07;;;;;;;13.95;5.03;;;;;;;;;;4975778;28;20027;-44
2023/05/10 04:33:35;;;;;;;18.10;6.15;;;;;;;;;;4993164;28;20033;-46
2023/05/10 04:36:02;;;;;;;13.98;5.68;;;;;;;;;;4993019;28;20035;-44
2023/05/10 04:38:30;;;;;;;17.65;5.35;;;;;;;;;;4993054;28;20472;-43
2023/05/10 04:41:07;;;;;;;18.05;5.88;;;;;;;;;;4993061;28;20515;-45
2023/05/10 04:43:34;;;;;;;14.25;5.38;;;;;;;;;;4992978;28;20040;-49
2023/05/10 04:46:01;;;;;;;12.48;5.10;;;;;;;;;;4992849;28;20513;-47
2023/05/10 04:48:28;;;;;;;11.88;4.97;;;;;;;;;;4992812;28;20046;-45
2023/05/10 04:50:55;;;;;;;13.32;5.10;;;;;;;;;;4992920;28;20057;-44
2023/05/10 04:53:22;;;;;;;17.80;5.45;;;;;;;;;;4992743;28;20035;-48
2023/05/10 04:55:49;;;;;;;14.73;5.28;;;;;;;;;;4992793;28;20034;-43
2023/05/10 04:58:16;;;;;;;14.48;5.28;;;;;;;;;;4992639;28;20034;-44
2023/05/10 05:00:43;;;;;;;11.73;4.53;;;;;;;;;;4992809;28;20022;-44
2023/05/10 05:03:10;;;;;;;12.48;5.10;;;;;;;;;;4992514;28;20057;-43
2023/05/10 05:05:37;;;;;;;11.70;4.70;;;;;;;;;;4992651;28;20480;-44
2023/05/10 05:08:04;;;;;;;17.77;5.22;;;;;;;;;;4992495;28;20028;-44
2023/05/10 05:10:31;;;;;;;14.35;5.32;;;;;;;;;;4992458;28;20054;-43
2023/05/10 05:12:58;;;;;;;13.15;5.20;;;;;;;;;;4992410;28;20030;-44
2023/05/10 05:15:25;;;;;;;13.23;4.90;;;;;;;;;;4992520;28;20189;-44
2023/05/10 05:17:52;;;;;;;11.70;4.95;;;;;;;;;;4992350;28;20026;-44
2023/05/10 05:20:19;;;;;;;13.80;5.00;;;;;;;;;;4992397;28;20033;-44
2023/05/10 05:22:46;;;;;;;14.32;4.78;;;;;;;;;;4992424;28;20032;-43
2023/05/10 05:25:14;;;;;;;11.13;4.18;;;;;;;;;;4992424;28;20023;-44
2023/05/10 05:27:41;;;;;;;17.55;5.50;;;;;;;;;;4992168;28;20034;-43
2023/05/10 05:30:09;;;;;;;13.25;4.53;;;;;;;;;;4991967;28;20018;-44
2023/05/10 05:32:36;;;;;;;10.75;4.65;;;;;;;;;;4992265;28;20118;-44
2023/05/10 05:35:03;;;;;;;11.35;4.72;;;;;;;;;;4992242;28;20026;-44
2023/05/10 05:37:30;;;;;;;11.98;5.20;;;;;;;;;;4992196;28;20026;-44
2023/05/10 05:39:56;;;;;;;11.85;4.90;;;;;;;;;;4992238;28;20042;-43
2023/05/10 05:42:23;;;;;;;11.60;5.22;;;;;;;;;;4992192;28;20384;-43
2023/05/10 05:44:50;;;;;;;11.48;4.95;;;;;;;;;;4992202;28;20014;-43
2023/05/10 05:47:17;;;;;;;11.52;4.40;;;;;;;;;;4991942;28;20093;-43
2023/05/10 05:49:47;;;;;;;11.02;4.45;;;;;;;;;;4974707;28;20084;-44
2023/05/10 05:52:14;;;;;;;10.05;4.22;;;;;;;;;;4992079;28;20057;-43
2023/05/10 05:54:41;;;;;;;11.27;4.60;;;;;;;;;;4992122;28;20031;-44
2023/05/10 05:57:08;;;;;;;11.25;4.57;;;;;;;;;;4992029;28;20049;-43
2023/05/10 05:59:35;;;;;;;12.43;5.00;;;;;;;;;;4992158;28;20050;-46
2023/05/10 06:02:02;;;;;;;9.27;4.32;;;;;;;;;;4990580;28;20026;-43
2023/05/10 06:04:29;;;;;;;11.43;4.35;;;;;;;;;;4991931;28;20114;-46
2023/05/10 06:06:56;;;;;;;10.43;4.50;;;;;;;;;;4991923;28;20022;-43
2023/05/10 06:09:24;;;;;;;12.00;4.45;;;;;;;;;;4992065;28;20538;-43
2023/05/10 06:11:51;;;;;;;9.27;4.50;;;;;;;;;;4991980;28;20026;-43
2023/05/10 06:14:18;;;;;;;9.93;4.53;;;;;;;;;;4991853;28;20034;-43
2023/05/10 06:16:45;;;;;;;12.43;4.35;;;;;;;;;;4991755;28;20054;-43
2023/05/10 06:19:12;;;;;;;8.30;4.07;;;;;;;;;;4974470;28;20440;-43
2023/05/10 06:21:39;;;;;;;11.73;4.30;;;;;;;;;;4991857;28;20054;-44
2023/05/10 06:24:06;;;;;;;9.38;3.78;;;;;;;;;;4991899;28;20106;-43
2023/05/10 06:26:33;;;;;;;9.60;4.03;;;;;;;;;;4991756;28;20112;-43
2023/05/10 06:29:01;;;;;;;7.07;3.40;;;;;;;;;;4991699;28;20033;-45
2023/05/10 06:31:28;;;;;;;9.82;4.03;;;;;;;;;;4991719;28;20480;-45
2023/05/10 06:33:55;;;;;;;8.35;3.92;;;;;;;;;;4991663;28;20551;-43
2023/05/10 06:36:23;;;;;;;9.48;3.83;;;;;;;;;;4991706;28;20514;-44
2023/05/10 06:38:51;;;;;;;10.48;4.43;;;;;;;;;;4991647;28;20034;-43
2023/05/10 06:41:18;;;;;;;10.30;4.07;;;;;;;;;;4991692;28;20113;-44
2023/05/10 06:43:45;;;;;;;10.60;4.68;;;;;;;;;;4994954;28;20365;-43
2023/05/10 06:46:12;;;;;;;9.18;4.15;;;;;;;;;;4995117;28;20026;-43
2023/05/10 06:48:39;;;;;;;10.80;4.20;;;;;;;;;;4994855;28;20054;-43
2023/05/10 06:51:06;;;;;;;8.57;4.07;;;;;;;;;;4995041;28;20507;-43
2023/05/10 06:53:33;;;;;;;8.50;4.35;;;;;;;;;;4977654;28;20056;-44
2023/05/10 06:56:00;;;;;;;8.43;3.80;;;;;;;;;;4995003;28;20030;-45
2023/05/10 06:58:27;;;;;;;9.25;4.28;;;;;;;;;;4994962;28;20030;-45
2023/05/10 07:00:54;;;;;;;9.32;4.00;;;;;;;;;;4994872;28;20035;-43
2023/05/10 07:03:21;;;;;;;11.38;3.90;;;;;;;;;;4994938;28;20038;-44
2023/05/10 07:05:48;;;;;;;8.70;3.92;;;;;;;;;;4994771;28;20045;-43
2023/05/10 07:08:15;;;;;;;7.15;3.50;;;;;;;;;;4994811;28;20019;-43
2023/05/10 07:10:42;;;;;;;7.10;3.58;;;;;;;;;;4994804;28;20081;-45
2023/05/10 07:13:10;;;;;;;8.55;3.72;;;;;;;;;;4994568;28;20053;-43
2023/05/10 07:15:37;;;;;;;5.65;3.33;;;;;;;;;;4994633;28;20081;-43
2023/05/10 07:18:06;;;;;;;8.25;3.95;;;;;;;;;;4994485;28;20484;-43
2023/05/10 07:20:33;;;;;;;7.25;3.63;;;;;;;;;;4994489;28;20108;-43
2023/05/10 07:23:00;;;;;;;7.90;3.72;;;;;;;;;;4994476;28;20081;-43
2023/05/10 07:25:27;;;;;;;7.38;3.58;;;;;;;;;;4994532;28;20103;-43
2023/05/10 07:27:54;;;;;;;6.43;3.67;;;;;;;;;;4994348;28;20036;-43
2023/05/10 07:30:21;;;;;;;7.00;3.38;;;;;;;;;;4994499;28;20033;-43
2023/05/10 07:32:48;;;;;;;7.63;3.70;;;;;;;;;;4994269;28;20042;-44
2023/05/10 07:35:15;;;;;;;8.30;3.85;;;;;;;;;;4994423;28;20029;-43
2023/05/10 07:37:42;;;;;;;8.18;3.50;;;;;;;;;;4994240;28;20026;-43
2023/05/10 07:40:09;;;;;;;6.35;3.33;;;;;;;;;;4994231;28;20036;-43
2023/05/10 07:42:36;;;;;;;8.05;3.58;;;;;;;;;;4994219;28;20023;-43
2023/05/10 07:45:03;;;;;;;9.23;3.40;;;;;;;;;;4994125;28;20022;-43
2023/05/10 07:47:30;;;;;;;8.75;3.30;;;;;;;;;;4993885;28;20115;-43
2023/05/10 07:49:57;;;;;;;7.25;3.17;;;;;;;;;;4994103;28;20560;-44
2023/05/10 07:52:24;;;;;;;6.65;3.53;;;;;;;;;;4993922;28;20030;-43
2023/05/10 07:54:51;;;;;;;6.43;3.17;;;;;;;;;;4993840;28;20033;-43
2023/05/10 07:57:19;;;;;;;6.80;3.10;;;;;;;;;;4993840;28;20392;-45
2023/05/10 07:59:46;;;;;;;6.18;3.17;;;;;;;;;;4993886;28;20026;-43
2023/05/10 08:02:13;;;;;;;7.20;3.00;;;;;;;;;;4993881;28;20034;-44
2023/05/10 08:04:40;;;;;;;7.43;3.35;;;;;;;;;;4993699;28;20030;-44
2023/05/10 08:07:07;;;;;;;8.40;3.30;;;;;;;;;;4993596;28;20129;-43
2023/05/10 08:09:34;;;;;;;6.13;3.10;;;;;;;;;;4993704;28;20033;-43
2023/05/10 08:12:01;;;;;;;5.22;2.83;;;;;;;;;;4993689;28;20033;-45
2023/05/10 08:14:29;;;;;;;6.15;3.05;;;;;;;;;;4993444;28;20034;-43
2023/05/10 08:16:56;;;;;;;6.20;3.20;;;;;;;;;;4993506;28;20031;-43
2023/05/10 08:19:23;;;;;;;7.15;3.10;;;;;;;;;;4993458;28;20096;-43
2023/05/10 08:21:50;;;;;;;5.85;2.65;;;;;;;;;;4976019;28;20436;-43
2023/05/10 08:24:17;;;;;;;6.13;3.00;;;;;;;;;;4993306;28;20153;-43
2023/05/10 08:26:44;;;;;;;5.82;3.08;;;;;;;;;;4993109;28;20381;-45
2023/05/10 08:29:11;;;;;;;6.88;2.72;;;;;;;;;;4975798;28;20029;-43
2023/05/10 08:31:38;;;;;;;4.85;2.60;;;;;;;;;;4993497;28;20383;-43
2023/05/10 08:34:05;;;;;;;5.93;2.90;;;;;;;;;;4993181;28;20034;-46
2023/05/10 08:36:32;;;;;;;4.25;2.47;;;;;;;;;;4993022;28;20022;-44
2023/05/10 08:38:59;;;;;;;6.95;3.03;;;;;;;;;;4993096;28;20046;-45
2023/05/10 08:41:27;;;;;;;4.50;2.60;;;;;;;;;;4993157;28;20033;-43
2023/05/10 08:43:55;;;;;;;7.07;2.80;;;;;;;;;;4992989;28;20543;-46
2023/05/10 08:46:23;;;;;;;7.22;2.78;;;;;;;;;;4992747;28;20036;-43
2023/05/10 08:48:51;;;;;;;6.03;2.38;;;;;;;;;;4992866;28;20392;-45
2023/05/10 08:51:25;;;;;;;8.73;3.00;;;;;;;;;;4992872;28;20030;-46
2023/05/10 08:53:52;;;;;;;8.45;3.15;;;;;;;;;;4992725;28;20042;-45
2023/05/10 08:56:20;;;;;;;4.53;2.55;;;;;;;;;;4992652;28;20022;-45
2023/05/10 08:58:47;;;;;;;5.25;2.97;;;;;;;;;;4992722;28;20085;-45
2023/05/10 09:01:14;;;;;;;7.00;2.95;;;;;;;;;;4992747;28;20018;-44
2023/05/10 09:03:41;;;;;;;4.30;2.70;;;;;;;;;;4992540;28;20428;-45
2023/05/10 09:06:08;;;;;;;5.80;2.83;;;;;;;;;;4974611;28;20027;-48
2023/05/10 09:08:37;;;;;;;5.20;2.40;;;;;;;;;;4992634;28;20029;-44
2023/05/10 09:11:04;;;;;;;4.13;2.45;;;;;;;;;;4992609;28;20027;-44
2023/05/10 09:13:31;;;;;;;5.88;3.05;;;;;;;;;;4992433;28;20031;-44
2023/05/10 09:15:58;;;;;;;4.38;2.50;;;;;;;;;;4992422;28;20447;-44
2023/05/10 09:18:25;;;;;;;5.43;2.60;;;;;;;;;;4975152;28;20030;-45
2023/05/10 09:20:52;;;;;;;7.30;2.72;;;;;;;;;;4992495;28;20018;-44
2023/05/10 09:23:19;;;;;;;4.65;2.30;;;;;;;;;;4992505;28;20057;-44
2023/05/10 09:25:49;;;;;;;5.22;2.08;;;;;;;;;;4992003;28;20520;-44
2023/05/10 09:28:16;;;;;;;5.50;2.50;;;;;;;;;;4992398;28;20401;-43
2023/05/10 09:30:43;;;;;;;4.28;2.20;;;;;;;;;;4991734;28;20060;-44
2023/05/10 09:33:10;;;;;;;4.18;2.40;;;;;;;;;;4992216;28;20042;-44
2023/05/10 09:35:39;;;;;;;3.50;2.20;;;;;;;;;;4992161;28;20077;-45
2023/05/10 09:38:06;;;;;;;4.88;2.30;;;;;;;;;;4982103;28;20117;-44
2023/05/10 09:40:33;;;;;;;6.07;2.70;;;;;;;;;;4972850;28;20027;-44
2023/05/10 09:43:10;;;;;;;6.40;2.60;;;;;;;;;;4973625;28;20552;-44
2023/05/10 09:45:37;;;;;;;13.43;2.47;;;;;;;;;;4992158;28;20077;-44
2023/05/10 09:48:04;;;;;;;4.70;2.58;;;;;;;;;;4991660;28;20062;-44
2023/05/10 09:50:31;;;;;;;8.57;2.75;;;;;;;;;;4992076;28;20023;-44
2023/05/10 09:52:59;;;;;;;7.50;2.92;;;;;;;;;;4992342;28;20037;-44
2023/05/10 09:55:38;;;;;;;8.57;2.65;;;;;;;;;;4974664;28;20462;-45
2023/05/10 09:58:13;;;;;;;8.38;2.63;;;;;;;;;;4989544;28;20052;-45
2023/05/10 10:00:47;;;;;;;13.35;3.00;;;;;;;;;;4972578;28;20073;-44
2023/05/10 10:03:22;;;;;;;9.90;2.78;;;;;;;;;;4972696;28;20042;-44
2023/05/10 10:05:55;;;;;;;10.95;2.83;;;;;;;;;;4972383;28;20041;-44
2023/05/10 10:08:29;;;;;;;11.55;2.78;;;;;;;;;;4972690;28;20170;-44
2023/05/10 10:11:00;;;;;;;8.93;2.75;;;;;;;;;;4972569;28;20030;-45
2023/05/10 10:13:33;;;;;;;8.02;2.70;;;;;;;;;;4972433;28;20082;-44
2023/05/10 10:16:07;;;;;;;8.70;2.67;;;;;;;;;;4973276;28;20118;-45
2023/05/10 10:18:40;;;;;;;7.07;2.38;;;;;;;;;;4976355;28;20523;-46
2023/05/10 10:21:12;;;;;;;6.82;2.50;;;;;;;;;;4976220;28;20026;-44
2023/05/10 10:23:43;;;;;;;;;;;;;;;;;;4976742;28;20110;-45
2023/05/10 10:26:17;;;;;;;7.60;2.60;;;;;;;;;;4975730;28;19964;-44
2023/05/10 10:29:15;;;;;;;5.82;2.65;;;;;;;;;;4976070;28;20026;-44
2023/05/10 10:32:07;;;;;;;5.45;2.38;;;;;;;;;;4974746;28;20045;-46
2023/05/10 10:34:35;;;;;;;6.28;2.47;;;;;;;;;;4976852;28;20077;-47
2023/05/10 10:37:06;;;;;;;6.07;2.22;;;;;;;;;;5014991;28;20026;-45
2023/05/10 10:39:36;;;;;;;10.65;2.38;;;;;;;;;;4982431;28;20041;-46
2023/05/10 10:42:03;;;;;;;12.55;2.83;;;;;;;;;;4986044;28;20038;-46
2023/05/10 10:44:33;;;;;;;12.48;2.70;;;;;;;;;;4975256;28;20023;-42
2023/05/10 10:47:22;;;;;;;12.60;2.70;;;;;;;;;;4993014;28;20066;-41
2023/05/10 10:49:54;;;;;;;9.95;2.88;;;;;;;;;;4994982;28;20400;-41
2023/05/10 10:52:30;;;;;;;10.07;2.80;;;;;;;;;;4993549;28;20037;-41
2023/05/10 10:55:06;;;;;;;8.98;2.35;;;;;;;;;;4994858;28;20404;-41
2023/05/10 10:57:34;;;;;;;9.60;2.83;;;;;;;;;;4994793;28;20030;-41
2023/05/10 11:00:20;;;;;;;10.57;3.20;;;;;;;;;;4994910;28;20022;-41
2023/05/10 11:02:54;;;;;;;11.82;2.83;;;;;;;;;;4993331;28;20022;-44
2023/05/10 11:05:27;;;;;;;13.77;3.17;;;;;;;;;;4991584;28;20031;-41
2023/05/10 11:07:58;;;;;;;9.60;2.53;;;;;;;;;;4994831;28;20030;-41
2023/05/10 11:10:25;;;;;;;12.68;2.97;;;;;;;;;;4994378;28;20432;-42
2023/05/10 11:13:00;;;;;;;10.38;2.80;;;;;;;;;;4993848;28;20026;-41
2023/05/10 11:15:31;;;;;;;10.18;2.50;;;;;;;;;;4994069;28;20054;-41
2023/05/10 11:17:58;;;;;;;9.93;2.40;;;;;;;;;;4993907;28;20018;-44
2023/05/10 11:20:33;;;;;;;13.50;2.60;;;;;;;;;;4992215;28;20051;-43
2023/05/10 11:23:15;;;;;;;8.75;2.83;;;;;;;;;;4993796;28;20583;-43
2023/05/10 11:25:42;;;;;;;;;;;;;;;;;;4987257;28;20031;-43
2023/05/10 11:28:10;;;;;;;8.35;2.67;;;;;;;;;;4983399;28;19960;-46
2023/05/10 11:30:37;;;;;;;8.20;2.60;;;;;;;;;;4984797;28;20023;-43
2023/05/10 11:33:04;;;;;;;12.65;2.90;;;;;;;;;;4982777;28;20031;-43
2023/05/10 11:35:31;;;;;;;15.02;3.13;;;;;;;;;;4982428;28;20068;-43
2023/05/10 11:37:58;;;;;;;13.00;3.17;;;;;;;;;;4983326;28;20129;-44
2023/05/10 11:40:26;;;;;;;10.68;2.90;;;;;;;;;;4982936;28;20031;-44
2023/05/10 11:42:53;;;;;;;14.23;2.95;;;;;;;;;;4982087;28;20473;-43
2023/05/10 11:45:21;;;;;;;15.18;3.22;;;;;;;;;;4981301;28;20026;-44
2023/05/10 11:47:49;;;;;;;24.02;3.63;;;;;;;;;;4981126;28;20054;-42
2023/05/10 11:50:18;;;;;;;16.13;4.03;;;;;;;;;;4983507;28;20026;-41
2023/05/10 11:52:45;;;;;;;9.30;2.80;;;;;;;;;;4982339;28;20031;-44
2023/05/10 11:55:13;;;;;;;15.80;3.42;;;;;;;;;;4982045;28;20037;-42
2023/05/10 11:57:41;;;;;;;15.30;3.67;;;;;;;;;;4974707;28;20101;-42
2023/05/10 12:00:08;;;;;;;17.60;3.67;;;;;;;;;;4973755;28;20058;-42
2023/05/10 12:02:36;;;;;;;16.33;3.67;;;;;;;;;;4973739;28;20041;-42
2023/05/10 12:05:03;;;;;;;14.90;3.28;;;;;;;;;;4973377;28;20528;-42
2023/05/10 12:07:30;;;;;;;17.92;3.35;;;;;;;;;;4964942;28;20433;-41
2023/05/10 12:10:14;;;;;;;21.63;3.72;;;;;;;;;;4982574;28;20492;-42
2023/05/10 12:12:42;;;;;;;21.38;3.85;;;;;;;;;;4982370;28;20042;-43
2023/05/10 12:15:19;;;;;;;27.15;3.83;;;;;;;;;;4992496;28;20027;-42
2023/05/10 12:17:47;;;;;;;19.17;3.85;;;;;;;;;;4974784;28;20571;-42
2023/05/10 12:20:18;;;;;;;18.17;3.65;;;;;;;;;;4973141;28;20492;-42
2023/05/10 12:22:46;;;;;;;18.55;3.45;;;;;;;;;;4983220;28;20037;-42
2023/05/10 12:25:13;;;;;;;24.38;4.20;;;;;;;;;;4983476;28;20049;-45
2023/05/10 12:27:43;;;;;;;22.77;4.25;;;;;;;;;;4987699;28;20038;-41
2023/05/10 12:30:13;;;;;;;22.00;3.60;;;;;;;;;;4976921;28;20053;-45
2023/05/10 12:32:45;;;;;;;17.20;3.72;;;;;;;;;;4983590;28;20027;-42
2023/05/10 12:35:12;;;;;;;28.03;3.87;;;;;;;;;;4978055;28;20078;-41
2023/05/10 12:37:39;;;;;;;18.45;3.42;;;;;;;;;;4974693;28;20349;-41
2023/05/10 12:40:10;;;;;;;11.80;3.10;;;;;;;;;;4989423;28;20034;-42
2023/05/10 12:42:38;;;;;;;16.02;3.55;;;;;;;;;;4992187;28;20030;-46
2023/05/10 12:45:06;;;;;;;15.07;3.42;;;;;;;;;;4992133;28;20034;-43
2023/05/10 12:47:34;;;;;;;17.70;4.05;;;;;;;;;;4991663;28;20053;-48
2023/05/10 12:50:02;;;;;;;16.60;4.10;;;;;;;;;;4993067;28;20394;-47
2023/05/10 12:52:29;;;;;;;22.70;3.35;;;;;;;;;;4992783;28;20026;-44
2023/05/10 12:54:56;;;;;;;18.13;3.92;;;;;;;;;;4992825;28;20073;-45
2023/05/10 12:57:27;;;;;;;19.50;3.92;;;;;;;;;;4992623;28;20034;-43
2023/05/10 12:59:55;;;;;;;15.38;3.17;;;;;;;;;;4975471;28;20030;-48
2023/05/10 13:02:22;;;;;;;11.50;3.42;;;;;;;;;;4992807;28;20026;-45
2023/05/10 13:04:50;;;;;;;17.40;3.70;;;;;;;;;;4992781;28;20111;-44
2023/05/10 13:07:17;;;;;;;14.32;3.42;;;;;;;;;;4992635;28;20111;-45
2023/05/10 13:09:44;;;;;;;16.13;3.58;;;;;;;;;;4992691;28;20629;-48
2023/05/10 13:12:11;;;;;;;14.18;3.47;;;;;;;;;;4992639;28;20033;-45
2023/05/10 13:14:40;;;;;;;13.85;3.47;;;;;;;;;;4992476;28;20042;-45
2023/05/10 13:17:07;;;;;;;11.95;3.72;;;;;;;;;;4992402;28;20034;-45
2023/05/10 13:19:34;;;;;;;11.07;3.13;;;;;;;;;;4992558;28;20416;-45
2023/05/10 13:22:01;;;;;;;11.05;3.60;;;;;;;;;;4975037;28;20025;-44
2023/05/10 13:24:28;;;;;;;12.77;3.28;;;;;;;;;;4992471;28;20084;-44
2023/05/10 13:26:55;;;;;;;11.57;3.10;;;;;;;;;;4992296;28;20029;-43
2023/05/10 13:29:22;;;;;;;11.85;3.13;;;;;;;;;;4992409;28;20062;-45
2023/05/10 13:31:49;;;;;;;12.98;3.35;;;;;;;;;;4992275;28;20034;-43
2023/05/10 13:34:20;;;;;;;13.05;3.55;;;;;;;;;;4992318;28;20088;-43
2023/05/10 13:36:47;;;;;;;10.15;3.50;;;;;;;;;;4992218;28;20404;-43
2023/05/10 13:39:14;;;;;;;11.82;3.20;;;;;;;;;;4992301;28;20022;-42
2023/05/10 13:41:41;;;;;;;11.13;2.97;;;;;;;;;;4992174;28;20384;-45
2023/05/10 13:44:08;;;;;;;14.55;3.30;;;;;;;;;;4992342;28;20054;-43
2023/05/10 13:46:35;;;;;;;11.35;2.97;;;;;;;;;;4991923;28;20078;-42
2023/05/10 13:49:02;;;;;;;13.63;3.22;;;;;;;;;;4992305;28;20109;-42
2023/05/10 13:51:29;;;;;;;11.80;2.97;;;;;;;;;;4993783;28;20489;-44
2023/05/10 13:53:56;;;;;;;13.32;2.70;;;;;;;;;;4996209;28;20575;-43
2023/05/10 13:56:23;;;;;;;13.00;3.00;;;;;;;;;;4996041;28;20476;-43
2023/05/10 13:58:50;;;;;;;15.15;3.03;;;;;;;;;;4996231;28;20018;-43
2023/05/10 14:01:17;;;;;;;12.98;3.10;;;;;;;;;;4996138;28;20030;-45
2023/05/10 14:03:44;;;;;;;13.20;3.40;;;;;;;;;;4996057;28;20022;-43
2023/05/10 14:06:11;;;;;;;7.47;2.83;;;;;;;;;;4995999;28;20034;-43
2023/05/10 14:08:38;;;;;;;10.25;2.85;;;;;;;;;;4996026;28;20058;-43
2023/05/10 14:11:05;;;;;;;8.00;2.55;;;;;;;;;;4995986;28;20424;-44
2023/05/10 14:13:32;;;;;;;7.15;2.58;;;;;;;;;;4995807;28;20045;-43
2023/05/10 14:16:02;;;;;;;9.57;2.58;;;;;;;;;;4995722;28;20106;-43
2023/05/10 14:18:29;;;;;;;10.52;3.08;;;;;;;;;;4995786;28;20097;-43
2023/05/10 14:20:56;;;;;;;10.73;2.50;;;;;;;;;;4978308;28;20380;-43
2023/05/10 14:23:28;;;;;;;6.82;2.10;;;;;;;;;;4995725;28;20093;-43
2023/05/10 14:25:55;;;;;;;8.32;2.63;;;;;;;;;;4995596;28;20113;-43
2023/05/10 14:28:23;;;;;;;13.80;3.40;;;;;;;;;;4995589;28;20026;-42
2023/05/10 14:30:50;;;;;;;9.05;2.53;;;;;;;;;;4995797;28;20038;-43
2023/05/10 14:33:17;;;;;;;14.23;3.03;;;;;;;;;;4995477;28;20031;-43
2023/05/10 14:35:46;;;;;;;9.20;2.53;;;;;;;;;;4995459;28;20388;-43
2023/05/10 14:38:14;;;;;;;8.80;2.50;;;;;;;;;;4995396;28;20459;-46
2023/05/10 14:40:42;;;;;;;10.50;2.95;;;;;;;;;;4995425;28;20022;-43